Terminal Aerodrome Forecast
Issued by NWS Sterling, VA

Current Version | Previous Version | Graphics & Text | Print | Product List | Glossary Off
Versions: 1 2 3 4 5 6 7 8 9 10 11 12 13 14 15 16 17 18 19 20 21 22 23 24 25

588
FTUS41 KLWX 291353 AAB
TAFIAD
TAF AMD
KIAD 291353Z 2914/3018 24010G25KT 3SM TSRA BKN035CB BKN110
     FM291500 25006KT P6SM SCT050 BKN120
     FM291800 25008KT P6SM VCTS SCT060CB
     FM292300 21007KT P6SM BKN060
     FM300600 00000KT P6SM SCT040
     FM300900 12004KT 4SM BR BKN015
     FM301200 11004KT P6SM BKN025
     FM301500 17005KT P6SM BKN035=

USA.gov is the U.S. government's official web portal to all federal, state and local government web resources and services.